West Potsdam, New York
Current Conditions -  °F | °C
As of 8:53 AM on Friday 19 Dec 2014 (Local Time) from KMSS Reporting Station
Overcast Overcast  
Wind Chill: 13°   Ceiling: 1900
Heat Index: 22°   Visibility: 10mi
Dew Point: 15°   Wind: 8mph
Humidity: 75%   Direction: 290°WNW
Pressure: 30.12"   Gusts: NA
Location:  44.6469°N, 74.9157°W
Report Text: KMSS 191353Z AUTO 29007KT 10SM OVC019 M06/M09 A3012 RMK AO2 SLP206 T10561094
Loading
Personal Weather Stations






























Interactive Weather Map New forecast layout! Learn more

10-Day Weather Forecast

Advertisements
Track Severe Weather on mobile